createdAt,value
2023-01-06T00:01:25.000Z,98516.81
2023-01-06T00:04:33.338Z,98545.16
2023-01-06T00:07:39.599Z,98551.34
2023-01-06T00:10:45.112Z,98595.88
2023-01-06T00:13:52.057Z,98580.78
2023-01-06T00:16:57.451Z,98575.28
2023-01-06T00:20:06.878Z,98584.94
2023-01-06T00:23:12.256Z,98602.25
2023-01-06T00:26:18.587Z,98592.47
2023-01-06T00:29:25.446Z,98605.13
2023-01-06T00:32:32.140Z,98600.03
2023-01-06T00:35:40.865Z,98610.94
2023-01-06T00:38:47.225Z,98570.47
2023-01-06T00:42:08.100Z,98620.34
2023-01-06T00:45:14.586Z,98621.78
2023-01-06T00:48:20.083Z,98623.69
2023-01-06T00:51:29.181Z,98653.16
2023-01-06T00:54:36.805Z,98631.31
2023-01-06T00:57:43.211Z,98630.56
2023-01-06T01:00:50.887Z,98637.84
2023-01-06T01:03:57.231Z,98643.88
2023-01-06T01:07:05.436Z,98663.19
2023-01-06T01:10:13.304Z,98654.88
2023-01-06T01:13:18.729Z,98657.03
2023-01-06T01:16:25.143Z,98656.91
2023-01-06T01:19:32.130Z,98670.09
2023-01-06T01:22:42.657Z,98666.38
2023-01-06T01:25:48.340Z,98673.50
2023-01-06T01:28:54.854Z,98672.44
2023-01-06T01:32:01.000Z,98668.38
2023-01-06T01:35:07.747Z,98679.38
2023-01-06T01:38:15.932Z,98675.56
2023-01-06T01:41:26.777Z,98679.56
2023-01-06T01:44:58.299Z,98680.41
2023-01-06T01:48:12.354Z,98678.69
2023-01-06T01:51:38.634Z,98691.00
2023-01-06T01:54:50.929Z,98680.94
2023-01-06T01:58:05.289Z,98691.31
2023-01-06T02:01:15.328Z,98701.50
2023-01-06T02:04:26.121Z,98686.94
2023-01-06T02:07:32.898Z,98698.28
2023-01-06T02:10:41.053Z,98700.75
2023-01-06T02:13:50.864Z,98721.53
2023-01-06T02:17:25.920Z,98703.31
2023-01-06T02:21:00.418Z,98706.03
2023-01-06T02:25:06.665Z,98716.97
2023-01-06T02:29:16.047Z,98716.72
2023-01-06T02:32:47.857Z,98713.13
2023-01-06T02:36:16.446Z,98723.19
2023-01-06T02:39:45.659Z,98728.84
2023-01-06T02:43:12.465Z,98731.31
2023-01-06T02:46:44.037Z,98731.28
2023-01-06T02:50:07.030Z,98741.78
2023-01-06T02:53:30.459Z,98741.09
2023-01-06T02:56:50.915Z,98737.63
2023-01-06T03:00:09.654Z,98733.56
2023-01-06T03:03:23.839Z,98731.47
2023-01-06T03:06:44.878Z,98732.50
2023-01-06T03:10:00.022Z,98726.19
2023-01-06T03:13:15.661Z,98733.03
2023-01-06T03:16:23.683Z,98725.44
2023-01-06T03:19:30.272Z,98733.09
2023-01-06T03:22:41.848Z,98738.78
2023-01-06T03:25:47.541Z,98728.38
2023-01-06T03:28:53.950Z,98734.28
2023-01-06T03:32:12.412Z,98733.38
2023-01-06T03:35:51.892Z,98736.97
2023-01-06T03:39:17.156Z,98745.91
2023-01-06T03:42:52.486Z,98733.91
2023-01-06T03:46:18.179Z,98736.53
2023-01-06T03:49:34.700Z,98734.84
2023-01-06T03:52:53.633Z,98737.34
2023-01-06T03:56:20.887Z,98736.09
2023-01-06T03:59:33.447Z,98735.00
2023-01-06T04:02:43.896Z,98742.41
2023-01-06T04:05:54.654Z,98743.97
2023-01-06T04:09:01.813Z,98742.25
2023-01-06T04:12:28.769Z,98734.31
2023-01-06T04:15:35.138Z,98755.09
2023-01-06T04:18:44.382Z,98730.16
2023-01-06T04:21:50.785Z,98753.59
2023-01-06T04:24:57.541Z,98749.22
2023-01-06T04:28:07.361Z,98736.81
2023-01-06T04:31:13.463Z,98738.22
2023-01-06T04:34:20.628Z,98738.88
2023-01-06T04:37:27.514Z,98743.03
2023-01-06T04:40:33.944Z,98752.50
2023-01-06T04:43:42.235Z,98749.00
2023-01-06T04:46:48.495Z,98752.31
2023-01-06T04:49:53.868Z,98758.38
2023-01-06T04:53:00.124Z,98750.56
2023-01-06T04:56:07.496Z,98757.06
2023-01-06T04:59:16.477Z,98757.13
2023-01-06T05:02:22.157Z,98770.25
2023-01-06T05:05:28.523Z,98770.84
2023-01-06T05:08:34.827Z,98760.53
2023-01-06T05:11:41.343Z,98767.50
2023-01-06T05:14:50.089Z,98771.13
2023-01-06T05:17:56.302Z,98774.56
2023-01-06T05:21:01.704Z,98774.25
2023-01-06T05:24:08.727Z,98776.69
2023-01-06T05:27:14.456Z,98759.53
2023-01-06T05:30:23.673Z,98790.56
2023-01-06T05:33:29.056Z,98787.22
2023-01-06T05:36:35.950Z,98799.91
2023-01-06T05:39:41.334Z,98790.31
2023-01-06T05:42:47.556Z,98788.50
2023-01-06T05:45:56.288Z,98796.16
2023-01-06T05:49:03.169Z,98795.41
2023-01-06T05:52:08.693Z,98792.78
2023-01-06T05:55:15.110Z,98793.00
2023-01-06T05:58:20.482Z,98785.66
2023-01-06T06:01:34.844Z,98791.06
2023-01-06T06:04:40.460Z,98799.03
2023-01-06T06:07:47.237Z,98801.69
2023-01-06T06:10:52.589Z,98798.94
2023-01-06T06:14:00.816Z,98800.66
2023-01-06T06:17:09.006Z,98793.72
2023-01-06T06:20:15.313Z,98788.69
2023-01-06T06:23:21.028Z,98800.75
2023-01-06T06:26:27.884Z,98803.56
2023-01-06T06:29:33.458Z,98805.47
2023-01-06T06:32:42.485Z,98806.41
2023-01-06T06:35:48.023Z,98806.56
2023-01-06T06:38:56.515Z,98810.16
2023-01-06T06:42:02.192Z,98803.59
2023-01-06T06:45:10.049Z,98802.03
2023-01-06T06:48:19.011Z,98814.16
2023-01-06T06:51:26.247Z,98809.75
2023-01-06T06:54:33.023Z,98807.59
2023-01-06T06:57:39.380Z,98809.38
2023-01-06T07:00:44.777Z,98805.78
2023-01-06T07:03:54.001Z,98817.78
2023-01-06T07:07:00.134Z,98815.03
2023-01-06T07:10:06.688Z,98810.47
2023-01-06T07:13:12.175Z,98810.25
2023-01-06T07:16:20.059Z,98820.38
2023-01-06T07:19:28.290Z,98825.47
2023-01-06T07:22:34.525Z,98823.75
2023-01-06T07:25:39.867Z,98830.91
2023-01-06T07:28:46.313Z,98851.56
2023-01-06T07:31:52.237Z,98845.41
2023-01-06T07:35:01.381Z,98844.47
2023-01-06T07:38:07.613Z,98845.22
2023-01-06T07:41:13.992Z,98862.66
2023-01-06T07:44:19.680Z,98865.66
2023-01-06T07:47:26.000Z,98861.38
2023-01-06T07:50:35.888Z,98790.38
2023-01-06T07:53:42.349Z,98870.50
2023-01-06T07:56:48.047Z,98879.44
2023-01-06T07:59:54.472Z,98869.63
2023-01-06T08:03:00.252Z,98873.75
2023-01-06T08:06:14.336Z,98868.97
2023-01-06T08:09:19.835Z,98874.66
2023-01-06T08:12:26.240Z,98868.91
2023-01-06T08:15:34.597Z,98858.06
2023-01-06T08:18:45.376Z,98789.41
2023-01-06T08:21:53.588Z,98868.22
2023-01-06T08:24:59.831Z,98869.94
2023-01-06T08:28:05.463Z,98879.16
2023-01-06T08:31:13.240Z,98881.19
2023-01-06T08:34:18.678Z,98878.25
2023-01-06T08:37:29.225Z,98882.16
2023-01-06T08:40:35.266Z,98876.88
2023-01-06T08:43:45.639Z,98872.50
2023-01-06T08:46:51.052Z,98869.00
2023-01-06T08:49:57.616Z,98882.53
2023-01-06T08:53:05.879Z,98885.34
2023-01-06T08:56:16.978Z,98880.06
2023-01-06T08:59:22.455Z,98874.84
2023-01-06T09:02:30.808Z,98876.34
2023-01-06T09:05:37.719Z,98848.59
2023-01-06T09:08:46.842Z,98863.25
2023-01-06T09:11:52.693Z,98876.00
2023-01-06T09:14:58.919Z,98866.94
2023-01-06T09:18:04.273Z,98864.78
2023-01-06T09:21:10.560Z,98867.97
2023-01-06T09:24:19.624Z,98850.34
2023-01-06T09:27:26.052Z,98862.03
2023-01-06T09:30:31.616Z,98860.09
2023-01-06T09:33:38.374Z,98845.09
2023-01-06T09:36:43.790Z,98848.28
2023-01-06T09:39:53.598Z,98845.41
2023-01-06T09:43:23.222Z,98833.88
2023-01-06T09:46:39.622Z,98844.34
2023-01-06T09:49:55.320Z,98829.50
2023-01-06T09:53:09.802Z,98829.59
2023-01-06T09:56:25.933Z,98831.34
2023-01-06T09:59:45.377Z,98828.66
2023-01-06T10:02:51.007Z,98831.13
2023-01-06T10:06:25.322Z,98819.00
2023-01-06T10:09:48.160Z,98805.94
2023-01-06T10:13:19.203Z,98806.13
2023-01-06T10:16:40.914Z,98796.59
2023-01-06T10:20:07.215Z,98802.66
2023-01-06T10:23:42.175Z,98798.47
2023-01-06T10:27:00.291Z,98784.25
2023-01-06T10:30:24.816Z,98788.34
2023-01-06T10:33:40.643Z,98767.19
2023-01-06T10:36:53.162Z,98709.78
2023-01-06T10:40:16.233Z,98760.47
2023-01-06T10:43:23.751Z,98750.66
2023-01-06T10:46:39.106Z,98751.41
2023-01-06T10:49:44.619Z,98745.31
2023-01-06T10:52:52.183Z,98749.38
2023-01-06T10:56:00.430Z,98752.75
2023-01-06T10:59:12.413Z,98743.50
2023-01-06T11:02:27.892Z,98732.63
2023-01-06T11:05:38.477Z,98730.50
2023-01-06T11:08:44.546Z,98722.91
2023-01-06T11:11:56.227Z,98730.72
2023-01-06T11:15:10.972Z,98737.91
2023-01-06T11:18:32.368Z,98735.69
2023-01-06T11:21:44.532Z,98734.75
2023-01-06T11:24:57.907Z,98739.75
2023-01-06T11:28:23.860Z,98726.50
2023-01-06T11:31:32.207Z,98726.56
2023-01-06T11:34:40.647Z,98722.13
2023-01-06T11:37:47.055Z,98714.28
2023-01-06T11:40:55.527Z,98730.63
2023-01-06T11:44:16.589Z,98718.97
2023-01-06T11:47:28.811Z,98703.75
2023-01-06T11:50:38.376Z,98692.31
2023-01-06T11:54:01.685Z,98685.75
2023-01-06T11:57:32.172Z,98668.13
2023-01-06T12:00:52.178Z,98659.19
2023-01-06T12:04:15.286Z,98650.19
2023-01-06T12:07:36.499Z,98655.00
2023-01-06T12:10:51.506Z,98662.56
2023-01-06T12:14:13.143Z,98670.19
2023-01-06T12:17:44.041Z,98668.00
2023-01-06T12:20:55.455Z,98667.75
2023-01-06T12:24:13.147Z,98671.13
2023-01-06T12:27:34.499Z,98667.41
2023-01-06T12:30:54.529Z,98669.66
2023-01-06T12:34:12.762Z,98665.06
2023-01-06T12:37:31.757Z,98675.13
2023-01-06T12:40:51.803Z,98654.88
2023-01-06T12:44:19.828Z,98646.97
2023-01-06T12:47:37.234Z,98632.66
2023-01-06T12:50:50.576Z,98627.97
2023-01-06T12:54:05.599Z,98623.56
2023-01-06T12:57:44.399Z,98619.19
2023-01-06T13:01:01.821Z,98625.28
2023-01-06T13:04:47.245Z,98625.28
2023-01-06T13:08:20.187Z,98612.91
2023-01-06T13:11:58.297Z,98607.44
2023-01-06T13:15:22.724Z,98611.38
2023-01-06T13:18:42.845Z,98597.13
2023-01-06T13:21:53.838Z,98587.25
2023-01-06T13:25:32.782Z,98590.72
2023-01-06T13:28:54.587Z,98577.66
2023-01-06T13:32:33.687Z,98568.06
2023-01-06T13:36:17.958Z,98566.97
2023-01-06T13:39:34.907Z,98567.91
2023-01-06T13:42:52.836Z,98568.91
2023-01-06T13:46:06.017Z,98562.81
2023-01-06T13:49:16.424Z,98563.69
2023-01-06T13:52:28.418Z,98557.69
2023-01-06T13:55:39.130Z,98548.06
2023-01-06T13:58:47.384Z,98537.50
2023-01-06T14:01:59.917Z,98539.31
2023-01-06T14:05:49.421Z,98534.97
2023-01-06T14:09:00.154Z,98535.97
2023-01-06T14:12:13.084Z,98539.69
2023-01-06T14:15:31.833Z,98553.00
2023-01-06T14:18:51.468Z,98541.75
2023-01-06T14:22:19.403Z,98536.44
2023-01-06T14:25:27.948Z,98532.00
2023-01-06T14:28:36.868Z,98545.00
2023-01-06T14:31:43.132Z,98542.31
2023-01-06T14:34:59.184Z,98536.91
2023-01-06T14:38:20.407Z,98531.41
2023-01-06T14:41:33.199Z,98537.47
2023-01-06T14:44:49.844Z,98531.09
2023-01-06T14:48:04.095Z,98538.16
2023-01-06T14:51:18.546Z,98529.53
2023-01-06T14:54:39.457Z,98519.81
2023-01-06T14:57:45.949Z,98517.06
2023-01-06T15:00:54.025Z,98514.28
2023-01-06T15:04:04.275Z,98506.56
2023-01-06T15:07:22.127Z,98517.34
2023-01-06T15:10:38.611Z,98519.06
2023-01-06T15:13:46.405Z,98518.28
2023-01-06T15:16:52.850Z,98515.66
2023-01-06T15:19:58.821Z,98518.44
2023-01-06T15:23:06.044Z,98507.38
2023-01-06T15:26:22.325Z,98501.34
2023-01-06T15:29:29.136Z,98499.66
2023-01-06T15:32:37.126Z,98518.91
2023-01-06T15:35:43.700Z,98515.53
2023-01-06T15:38:52.132Z,98508.59
2023-01-06T15:42:03.194Z,98490.47
2023-01-06T15:45:10.377Z,98498.88
2023-01-06T15:48:29.879Z,98484.25
2023-01-06T15:51:36.099Z,98483.94
2023-01-06T15:54:49.775Z,98492.88
2023-01-06T15:58:06.792Z,98486.72
2023-01-06T16:01:18.134Z,98479.00
2023-01-06T16:04:26.853Z,98471.16
2023-01-06T16:07:43.462Z,98469.31
2023-01-06T16:10:49.627Z,98480.53
2023-01-06T16:14:03.124Z,98478.72
2023-01-06T16:17:16.002Z,98400.81
2023-01-06T16:20:27.822Z,98482.84
2023-01-06T16:23:37.483Z,98483.78
2023-01-06T16:26:55.530Z,98470.91
2023-01-06T16:30:27.455Z,98473.63
2023-01-06T16:33:44.402Z,98475.47
2023-01-06T16:36:51.633Z,98461.81
2023-01-06T16:40:02.191Z,98462.66
2023-01-06T16:43:07.732Z,98464.38
2023-01-06T16:46:25.211Z,98467.00
2023-01-06T16:49:34.228Z,98452.28
2023-01-06T16:52:40.652Z,98456.31
2023-01-06T16:55:47.357Z,98467.19
2023-01-06T16:58:56.588Z,98464.06
2023-01-06T17:02:16.701Z,98458.28
2023-01-06T17:05:30.806Z,98464.00
2023-01-06T17:08:41.735Z,98454.53
2023-01-06T17:11:49.997Z,98458.22
2023-01-06T17:18:37.537Z,98471.00
2023-01-06T17:21:43.436Z,98474.81
2023-01-06T17:24:50.401Z,98472.38
2023-01-06T17:27:56.086Z,98473.19
2023-01-06T17:31:04.277Z,98473.59
2023-01-06T17:34:21.475Z,98475.44
2023-01-06T17:37:33.095Z,98478.97
2023-01-06T17:40:38.817Z,98473.91
2023-01-06T17:43:45.324Z,98467.88
2023-01-06T17:46:51.074Z,98480.13
2023-01-06T17:50:02.247Z,98417.31
2023-01-06T17:53:36.715Z,98427.25
2023-01-06T17:56:43.155Z,98456.66
2023-01-06T17:59:52.829Z,98381.50
2023-01-06T18:03:06.967Z,98458.41
2023-01-06T18:06:30.664Z,98452.97
2023-01-06T18:09:37.431Z,98458.50
2023-01-06T18:12:44.353Z,98461.88
2023-01-06T18:15:56.029Z,98458.25
2023-01-06T18:19:32.194Z,98454.78
2023-01-06T18:22:41.432Z,98460.66
2023-01-06T18:25:47.323Z,98464.25
2023-01-06T18:28:54.093Z,98460.88
2023-01-06T18:32:22.644Z,98460.03
2023-01-06T18:35:30.726Z,98464.19
2023-01-06T18:38:39.062Z,98458.97
2023-01-06T18:41:45.475Z,98463.25
2023-01-06T18:44:51.643Z,98475.44
2023-01-06T18:48:04.336Z,98470.19
2023-01-06T18:51:22.838Z,98482.22
2023-01-06T18:54:32.249Z,98477.91
2023-01-06T18:57:46.061Z,98469.81
2023-01-06T19:00:57.362Z,98471.59
2023-01-06T19:04:08.573Z,98478.44
2023-01-06T19:07:24.642Z,98464.53
2023-01-06T19:10:33.204Z,98476.75
2023-01-06T19:13:40.012Z,98470.59
2023-01-06T19:16:56.348Z,98476.69
2023-01-06T19:20:16.811Z,98475.69
2023-01-06T19:23:26.660Z,98503.97
2023-01-06T19:26:44.805Z,98492.91
2023-01-06T19:29:50.445Z,98501.88
2023-01-06T19:32:57.356Z,98488.78
2023-01-06T19:36:43.980Z,98505.00
2023-01-06T19:40:01.089Z,98488.50
2023-01-06T19:43:18.648Z,98492.94
2023-01-06T19:46:30.065Z,98494.41
2023-01-06T19:49:45.435Z,98497.38
2023-01-06T19:53:00.111Z,98496.09
2023-01-06T19:56:21.599Z,98506.22
2023-01-06T19:59:34.570Z,98505.94
2023-01-06T20:02:48.184Z,98514.16
2023-01-06T20:05:54.805Z,98512.22
2023-01-06T20:09:00.461Z,98510.56
2023-01-06T20:12:07.450Z,98519.03
2023-01-06T20:15:16.567Z,98516.63
2023-01-06T20:18:22.939Z,98517.19
2023-01-06T20:21:28.464Z,98524.41
2023-01-06T20:24:34.809Z,98518.44
2023-01-06T20:27:40.326Z,98530.00
2023-01-06T20:30:49.781Z,98530.91
2023-01-06T20:33:55.467Z,98531.16
2023-01-06T20:37:02.370Z,98536.25
2023-01-06T20:40:09.141Z,98529.88
2023-01-06T20:43:15.568Z,98549.69
2023-01-06T20:46:23.871Z,98535.97
2023-01-06T20:49:30.333Z,98544.47
2023-01-06T20:52:36.065Z,98554.91
2023-01-06T20:55:42.739Z,98539.53
2023-01-06T20:58:48.203Z,98544.31
2023-01-06T21:01:57.586Z,98543.47
2023-01-06T21:05:03.278Z,98548.00
2023-01-06T21:08:09.615Z,98554.78
2023-01-06T21:11:15.205Z,98562.00
2023-01-06T21:14:21.473Z,98559.09
2023-01-06T21:17:29.940Z,98561.84
2023-01-06T21:20:36.298Z,98564.38
2023-01-06T21:23:42.191Z,98578.41
2023-01-06T21:26:48.443Z,98569.47
2023-01-06T21:29:54.411Z,98564.69
2023-01-06T21:33:03.540Z,98553.78
2023-01-06T21:36:09.790Z,98561.63
2023-01-06T21:39:16.482Z,98567.09
2023-01-06T21:42:37.814Z,98565.97
2023-01-06T21:45:48.171Z,98569.63
2023-01-06T21:48:56.396Z,98556.50
2023-01-06T21:52:06.841Z,98572.19
2023-01-06T21:55:13.729Z,98566.50
2023-01-06T21:58:19.993Z,98576.59
2023-01-06T22:01:25.742Z,98570.25
2023-01-06T22:04:35.122Z,98569.19
2023-01-06T22:07:47.352Z,98580.44
2023-01-06T22:10:53.943Z,98570.59
2023-01-06T22:13:59.516Z,98573.06
2023-01-06T22:17:06.865Z,98577.50
2023-01-06T22:20:17.954Z,98579.47
2023-01-06T22:23:25.499Z,98579.47
2023-01-06T22:26:30.865Z,98584.72
2023-01-06T22:29:37.115Z,98584.56
2023-01-06T22:32:46.593Z,98589.13
2023-01-06T22:36:00.170Z,98588.28
2023-01-06T22:39:06.428Z,98580.66
2023-01-06T22:42:12.805Z,98588.41
2023-01-06T22:45:18.437Z,98593.91
2023-01-06T22:48:25.147Z,98592.78
2023-01-06T22:51:33.880Z,98604.13
2023-01-06T22:54:40.144Z,98599.47
2023-01-06T22:57:45.553Z,98610.47
2023-01-06T23:00:52.964Z,98614.56
2023-01-06T23:04:00.274Z,98616.81
2023-01-06T23:07:09.357Z,98619.53
2023-01-06T23:10:17.473Z,98623.91
2023-01-06T23:13:23.727Z,98622.91
2023-01-06T23:16:30.402Z,98631.25
2023-01-06T23:19:36.956Z,98629.69
2023-01-06T23:22:45.185Z,98619.81
2023-01-06T23:25:51.386Z,98628.72
2023-01-06T23:28:58.635Z,98627.03
2023-01-06T23:32:05.093Z,98636.22
2023-01-06T23:35:11.821Z,98640.81
2023-01-06T23:38:20.917Z,98636.63
2023-01-06T23:41:29.279Z,98641.81
2023-01-06T23:44:35.803Z,98645.09
2023-01-06T23:47:41.269Z,98649.09
2023-01-06T23:50:53.301Z,98646.56
2023-01-06T23:54:02.349Z,98639.75
2023-01-06T23:57:09.200Z,98636.63
